Time;durP1;ratioP1;P1;durP2;ratioP2;P2;SDS_P1;SDS_P2;PMS_P1;PMS_P2;Temp;Humidity;BMP_temperature;BMP_pressure;BME280_temperature;BME280_humidity;BME280_pressure;Samples;Min_cycle;Max_cycle;Signal;HPM_P1;HPM_P2
2021/12/24 00:01:17;;;;;;;30.97;21.27;;;9.40;99.90;;;;;;5055626;28;20259;-68
2021/12/24 00:03:42;;;;;;;30.00;21.23;;;9.30;99.90;;;;;;5037639;28;20679;-68
2021/12/24 00:06:09;;;;;;;33.87;21.87;;;9.40;99.90;;;;;;5054219;28;20260;-68
2021/12/24 00:08:36;;;;;;;34.20;21.57;;;9.50;99.90;;;;;;5053902;28;20197;-69
2021/12/24 00:11:03;;;;;;;35.47;25.10;;;9.50;99.90;;;;;;5055366;28;20177;-69
2021/12/24 00:13:34;;;;;;;58.73;36.00;;;9.40;99.90;;;;;;5055359;28;20169;-69
2021/12/24 00:37:23;;;;;;;36.47;21.10;;;9.50;99.90;;;;;;5055087;28;20167;-69
2021/12/24 00:40:10;;;;;;;29.53;19.10;;;9.50;99.90;;;;;;5055066;28;20244;-68
2021/12/24 00:42:36;;;;;;;27.87;19.67;;;9.50;99.90;;;;;;5055103;28;20220;-69
2021/12/24 00:45:03;;;;;;;29.53;19.70;;;9.40;99.90;;;;;;5054917;28;20212;-69
2021/12/24 00:47:29;;;;;;;30.87;20.40;;;9.50;99.90;;;;;;5054976;28;20253;-69
2021/12/24 00:49:55;;;;;;;29.90;19.73;;;9.40;99.90;;;;;;5054688;28;20251;-69
2021/12/24 00:55:05;;;;;;;29.83;19.17;;;9.50;99.90;;;;;;5054914;28;20177;-68
2021/12/24 00:57:33;;;;;;;28.70;19.30;;;9.50;99.90;;;;;;5054651;28;20637;-69
2021/12/24 00:59:59;;;;;;;28.50;18.67;;;9.50;99.90;;;;;;5054637;28;20223;-68
2021/12/24 01:02:25;;;;;;;30.77;19.17;;;9.50;99.90;;;;;;5054725;28;20583;-68
2021/12/24 01:04:51;;;;;;;27.53;19.10;;;9.60;99.90;;;;;;5054392;28;20543;-68
2021/12/24 01:07:16;;;;;;;31.17;19.27;;;9.50;99.90;;;;;;5054241;28;20184;-69
2021/12/24 01:09:43;;;;;;;30.87;19.77;;;9.50;99.90;;;;;;5054537;28;20173;-69
2021/12/24 01:12:09;;;;;;;28.07;18.70;;;9.50;99.90;;;;;;5054581;28;20169;-69
2021/12/24 01:14:34;;;;;;;29.20;18.43;;;9.50;99.90;;;;;;5054182;28;20173;-69
2021/12/24 01:19:52;;;;;;;29.13;19.07;;;9.70;99.90;;;;;;5031563;28;20182;-68
2021/12/24 01:37:52;;;;;;;27.87;18.23;;;9.60;99.90;;;;;;4992688;28;20713;-69
2021/12/24 01:43:27;;;;;;;32.73;17.97;;;9.50;99.90;;;;;;4992513;28;20180;-69
2021/12/24 01:45:55;;;;;;;28.13;18.83;;;9.60;99.90;;;;;;4992138;28;20282;-68
2021/12/24 01:48:21;;;;;;;33.00;19.53;;;9.60;99.90;;;;;;4992430;28;20171;-68
2021/12/24 01:50:49;;;;;;;28.07;17.57;;;9.70;99.90;;;;;;4991801;28;20214;-68
2021/12/24 01:53:21;;;;;;;32.63;18.53;;;9.60;99.90;;;;;;4992547;28;20206;-69
2021/12/24 01:55:50;;;;;;;29.23;19.07;;;9.70;99.90;;;;;;4993621;28;20163;-68
2021/12/24 01:58:21;;;;;;;30.87;19.50;;;9.70;99.90;;;;;;5019923;28;20201;-68
2021/12/24 02:00:50;;;;;;;30.43;20.13;;;9.70;99.90;;;;;;5032155;28;20185;-69
2021/12/24 02:03:17;;;;;;;33.70;19.60;;;9.70;99.90;;;;;;5032405;28;20652;-69
2021/12/24 02:05:43;;;;;;;31.03;19.40;;;9.70;99.90;;;;;;5033213;28;20723;-69
2021/12/24 02:08:10;;;;;;;33.67;20.63;;;9.70;99.90;;;;;;5033573;28;20219;-69
2021/12/24 02:10:36;;;;;;;32.50;20.57;;;9.70;99.90;;;;;;5032154;28;20536;-69
2021/12/24 02:13:02;;;;;;;34.97;19.67;;;9.70;99.90;;;;;;5033410;28;20170;-69
2021/12/24 02:15:41;;;;;;;32.97;19.50;;;9.80;99.90;;;;;;5033578;28;20166;-69
2021/12/24 02:28:47;;;;;;;33.07;19.53;;;9.90;99.90;;;;;;5053359;28;20531;-69
2021/12/24 02:31:19;;;;;;;37.23;20.27;;;9.90;99.90;;;;;;5052306;28;20174;-69
2021/12/24 02:33:46;;;;;;;31.47;19.43;;;9.70;99.90;;;;;;5052526;28;20169;-68
2021/12/24 02:36:11;;;;;;;28.20;19.00;;;9.80;99.90;;;;;;5053283;28;20259;-69
2021/12/24 02:38:38;;;;;;;30.50;19.23;;;9.80;99.90;;;;;;5053029;28;20181;-69
2021/12/24 02:41:06;;;;;;;33.23;20.60;;;10.00;99.90;;;;;;5052932;28;20174;-69
2021/12/24 02:43:33;;;;;;;32.73;21.03;;;9.90;99.90;;;;;;5053037;28;20193;-68
2021/12/24 02:46:07;;;;;;;31.13;20.17;;;9.80;99.90;;;;;;5051566;28;20218;-69
2021/12/24 02:53:57;;;;;;;33.43;20.30;;;9.80;99.90;;;;;;5053140;28;20176;-69
2021/12/24 02:56:27;;;;;;;29.70;19.80;;;9.90;99.90;;;;;;5052815;28;20188;-69
2021/12/24 02:58:53;;;;;;;32.13;20.03;;;9.80;99.90;;;;;;5052511;28;20229;-69
2021/12/24 03:01:23;;;;;;;37.40;20.80;;;9.80;99.90;;;;;;5051212;28;20208;-69
2021/12/24 03:03:50;;;;;;;35.43;19.70;;;9.90;99.90;;;;;;5067678;28;20236;-69
2021/12/24 03:06:20;;;;;;;34.57;19.97;;;9.90;99.90;;;;;;5052650;28;20609;-69
2021/12/24 03:08:46;;;;;;;32.80;19.40;;;10.00;99.90;;;;;;5052886;28;20173;-68
2021/12/24 03:11:12;;;;;;;35.83;19.87;;;10.00;99.90;;;;;;5052545;28;20220;-69
2021/12/24 03:13:39;;;;;;;29.20;19.43;;;9.90;99.90;;;;;;5051437;28;20539;-68
2021/12/24 03:16:05;;;;;;;31.50;19.43;;;10.00;99.90;;;;;;5051216;28;20181;-69
2021/12/24 03:18:34;;;;;;;35.67;19.53;;;9.90;99.90;;;;;;5052324;28;20192;-69
2021/12/24 03:21:14;;;;;;;34.30;19.77;;;9.90;99.90;;;;;;5052616;28;20287;-68
2021/12/24 03:24:33;;;;;;;38.17;19.80;;;10.00;99.90;;;;;;5052531;28;20165;-69
2021/12/24 03:26:33;;;;;;;34.20;19.20;;;10.00;99.90;;;;;;5052251;28;20221;-69
2021/12/24 03:28:58;;;;;;;34.23;19.47;;;10.00;99.90;;;;;;5052334;28;20246;-69
2021/12/24 03:31:24;;;;;;;37.07;19.20;;;10.00;99.90;;;;;;5052095;28;20173;-69
2021/12/24 03:33:53;;;;;;;30.70;19.63;;;10.00;99.90;;;;;;5052508;28;20173;-69
2021/12/24 03:36:20;;;;;;;32.10;18.23;;;9.90;99.90;;;;;;5052405;28;20173;-69
2021/12/24 03:38:46;;;;;;;32.83;19.33;;;9.90;99.90;;;;;;5052574;28;20625;-69
2021/12/24 03:41:12;;;;;;;36.30;19.23;;;9.90;99.90;;;;;;5052210;28;20212;-67
2021/12/24 03:43:37;;;;;;;34.07;19.27;;;10.00;99.90;;;;;;5054298;28;20231;-69
2021/12/24 03:46:07;;;;;;;34.67;19.17;;;10.00;99.90;;;;;;5055517;28;20252;-68
2021/12/24 03:48:45;;;;;;;36.07;20.17;;;10.10;99.90;;;;;;5056132;28;20629;-68
2021/12/24 03:56:31;;;;;;;43.07;19.93;;;10.00;99.90;;;;;;5055217;28;20181;-68
2021/12/24 03:58:56;;;;;;;38.57;19.37;;;10.10;99.90;;;;;;5055595;28;20214;-69
2021/12/24 04:01:22;;;;;;;36.47;18.33;;;10.00;99.90;;;;;;5055203;28;20580;-69
2021/12/24 04:03:48;;;;;;;36.00;18.87;;;10.00;99.90;;;;;;5055705;28;20209;-69
2021/12/24 04:06:13;;;;;;;34.03;19.13;;;10.10;99.90;;;;;;5055800;28;20579;-69
2021/12/24 04:08:40;;;;;;;36.47;18.43;;;10.00;99.90;;;;;;5055704;28;20622;-68
2021/12/24 04:11:06;;;;;;;30.47;18.30;;;10.10;99.90;;;;;;5055465;28;20647;-69
2021/12/24 04:13:33;;;;;;;34.47;18.93;;;10.20;99.90;;;;;;5055477;28;20227;-69
2021/12/24 04:15:59;;;;;;;35.07;18.63;;;10.20;99.90;;;;;;5053775;28;20227;-69
2021/12/24 04:26:28;;;;;;;38.33;19.20;;;10.10;99.90;;;;;;5055029;28;20723;-69
2021/12/24 04:28:53;;;;;;;35.97;19.60;;;10.00;99.90;;;;;;5055169;28;20256;-69
2021/12/24 04:31:22;;;;;;;36.93;19.27;;;10.10;99.90;;;;;;5054851;28;20173;-69
2021/12/24 04:33:49;;;;;;;39.47;20.10;;;10.00;99.90;;;;;;5054902;28;20621;-69
2021/12/24 05:03:33;;;;;;;40.07;20.53;;;9.90;99.90;;;;;;4973199;28;20371;-69
2021/12/24 05:06:10;;;;;;;38.03;21.30;;;9.90;99.90;;;;;;4973606;28;20196;-69
2021/12/24 05:08:50;;;;;;;40.30;20.30;;;9.90;99.90;;;;;;4973240;28;20282;-69
2021/12/24 05:11:18;;;;;;;34.67;19.83;;;9.90;99.90;;;;;;4972951;28;20223;-70
2021/12/24 05:13:44;;;;;;;43.73;20.97;;;9.90;99.90;;;;;;4972899;28;20180;-69
2021/12/24 05:21:42;;;;;;;37.07;20.10;;;9.90;99.90;;;;;;5054290;28;20172;-69
2021/12/24 05:24:20;;;;;;;40.63;21.03;;;10.00;99.90;;;;;;5053744;28;20227;-69
2021/12/24 05:26:58;;;;;;;39.37;21.00;;;10.00;99.90;;;;;;5053552;28;20220;-69
2021/12/24 05:29:24;;;;;;;31.40;19.43;;;9.90;99.90;;;;;;5053847;28;20251;-69
2021/12/24 05:31:51;;;;;;;40.07;19.47;;;9.90;99.90;;;;;;5052538;28;20268;-68
2021/12/24 05:34:18;;;;;;;40.30;20.30;;;10.00;99.90;;;;;;5053223;28;20597;-70
2021/12/24 05:36:46;;;;;;;34.43;19.40;;;10.10;99.90;;;;;;5053487;28;20180;-69
2021/12/24 05:39:14;;;;;;;35.87;20.33;;;10.10;99.90;;;;;;5053424;28;20173;-69
2021/12/24 05:41:40;;;;;;;40.70;20.53;;;10.10;99.90;;;;;;5053191;28;20220;-68
2021/12/24 05:44:09;;;;;;;39.27;20.43;;;10.10;99.90;;;;;;5053476;28;20205;-69
2021/12/24 05:46:35;;;;;;;36.30;20.53;;;10.20;99.90;;;;;;5053552;28;20204;-69
2021/12/24 05:49:00;;;;;;;33.30;20.70;;;10.20;99.90;;;;;;5053147;28;20184;-69
2021/12/24 05:51:26;;;;;;;41.93;20.33;;;10.20;99.90;;;;;;5053004;28;20552;-68
2021/12/24 05:53:52;;;;;;;35.60;20.47;;;10.10;99.90;;;;;;5052765;28;20180;-69
2021/12/24 05:56:17;;;;;;;39.40;20.33;;;10.00;99.90;;;;;;5052778;28;20260;-69
2021/12/24 05:58:43;;;;;;;41.27;20.47;;;10.10;99.90;;;;;;5052944;28;20197;-70
2021/12/24 06:01:09;;;;;;;34.00;20.10;;;10.20;99.90;;;;;;5053691;28;20609;-68
2021/12/24 06:03:35;;;;;;;37.53;20.77;;;10.10;99.90;;;;;;5053467;28;20173;-69
2021/12/24 06:06:01;;;;;;;33.67;20.13;;;10.00;99.90;;;;;;5052540;28;20644;-69
2021/12/24 06:08:26;;;;;;;36.80;20.40;;;10.00;99.90;;;;;;5052706;28;20231;-68
2021/12/24 06:10:52;;;;;;;40.23;20.53;;;10.10;99.90;;;;;;5052576;28;20169;-68
2021/12/24 06:13:17;;;;;;;35.27;20.50;;;10.10;99.90;;;;;;5052797;28;20621;-69
2021/12/24 06:15:48;;;;;;;43.80;20.80;;;10.10;99.90;;;;;;5052930;28;20170;-69
2021/12/24 06:18:26;;;;;;;39.03;21.00;;;10.10;99.90;;;;;;5052704;28;20165;-69
2021/12/24 06:20:53;;;;;;;36.57;20.80;;;10.00;99.90;;;;;;5052490;28;20255;-68
2021/12/24 06:23:21;;;;;;;40.57;20.83;;;10.10;99.90;;;;;;5052430;28;20173;-69
2021/12/24 06:25:48;;;;;;;38.57;19.87;;;10.10;99.90;;;;;;5051485;28;20228;-70
2021/12/24 06:28:14;;;;;;;40.97;21.63;;;10.10;99.90;;;;;;5052827;28;20176;-69
2021/12/24 06:30:41;;;;;;;39.23;21.13;;;10.10;99.90;;;;;;5052341;28;20223;-69
2021/12/24 06:33:07;;;;;;;37.27;20.73;;;10.10;99.90;;;;;;5052540;28;20244;-69
2021/12/24 06:35:33;;;;;;;35.40;20.77;;;10.10;99.90;;;;;;5052271;28;20181;-70
2021/12/24 06:37:59;;;;;;;36.33;20.03;;;10.20;99.90;;;;;;5052766;28;20188;-69
2021/12/24 06:40:25;;;;;;;48.13;22.13;;;10.20;99.90;;;;;;5050713;28;20250;-69
2021/12/24 06:42:51;;;;;;;39.83;20.47;;;10.30;99.90;;;;;;5052458;28;20177;-70
2021/12/24 06:45:21;;;;;;;45.13;20.77;;;10.20;99.90;;;;;;5052122;28;20212;-71
2021/12/24 06:47:48;;;;;;;37.93;19.90;;;10.10;99.90;;;;;;5051900;28;20238;-69
2021/12/24 06:50:13;;;;;;;42.47;20.53;;;10.00;99.90;;;;;;5051657;28;20177;-70
2021/12/24 06:52:39;;;;;;;36.93;19.63;;;10.00;99.90;;;;;;5051924;28;20307;-69
2021/12/24 06:55:06;;;;;;;34.63;18.77;;;10.00;99.90;;;;;;5051649;28;20172;-70
2021/12/24 06:57:31;;;;;;;37.30;18.13;;;10.00;99.90;;;;;;5051682;28;20189;-70
2021/12/24 06:59:57;;;;;;;29.47;16.27;;;9.90;99.90;;;;;;5051880;28;20180;-69
2021/12/24 07:02:22;;;;;;;37.17;18.53;;;9.90;99.90;;;;;;5051369;28;20241;-69
2021/12/24 07:04:48;;;;;;;33.17;18.13;;;9.90;99.90;;;;;;5051827;28;20220;-70
2021/12/24 07:07:14;;;;;;;35.77;18.13;;;9.90;99.90;;;;;;5051950;28;20219;-69
2021/12/24 07:09:42;;;;;;;28.80;16.93;;;10.00;99.90;;;;;;5051114;28;20260;-69
2021/12/24 07:12:12;;;;;;;28.30;16.57;;;9.90;99.90;;;;;;5052038;28;20181;-69
2021/12/24 07:14:41;;;;;;;32.17;17.50;;;10.00;99.90;;;;;;5052169;28;20181;-70
2021/12/24 07:17:08;;;;;;;34.10;17.77;;;9.90;99.90;;;;;;5051676;28;20176;-69
2021/12/24 07:19:34;;;;;;;26.43;16.17;;;10.00;99.90;;;;;;5053553;28;20581;-70
2021/12/24 07:21:59;;;;;;;28.13;16.47;;;10.00;99.90;;;;;;5055415;28;20177;-70
2021/12/24 07:24:25;;;;;;;29.33;16.93;;;10.00;99.90;;;;;;5055493;28;20296;-70
2021/12/24 07:26:51;;;;;;;31.50;16.33;;;9.90;99.90;;;;;;5055275;28;20734;-69
2021/12/24 07:29:16;;;;;;;34.20;16.40;;;9.90;99.90;;;;;;5055603;28;20226;-70
2021/12/24 07:31:42;;;;;;;27.57;16.43;;;9.80;99.90;;;;;;5055672;28;20620;-70
2021/12/24 07:34:08;;;;;;;29.27;16.53;;;9.80;99.90;;;;;;5055218;28;20195;-69
2021/12/24 07:36:34;;;;;;;31.37;17.10;;;9.70;99.90;;;;;;5055254;28;20173;-71
2021/12/24 07:38:59;;;;;;;27.40;16.73;;;9.70;99.90;;;;;;5055049;28;20629;-70
2021/12/24 07:41:25;;;;;;;31.17;17.40;;;9.70;99.90;;;;;;5055055;28;20170;-69
2021/12/24 07:43:51;;;;;;;27.33;16.83;;;9.70;99.90;;;;;;5055104;28;20180;-72
2021/12/24 07:46:17;;;;;;;32.40;17.50;;;9.60;99.90;;;;;;5054599;28;20181;-71
2021/12/24 07:48:47;;;;;;;36.40;18.07;;;9.70;99.90;;;;;;5055599;28;20502;-72
2021/12/24 07:54:00;;;;;;;33.33;18.77;;;9.70;99.90;;;;;;5054523;28;20175;-70
2021/12/24 07:56:30;;;;;;;34.20;18.33;;;9.60;99.90;;;;;;5055528;28;20189;-71
2021/12/24 07:58:57;;;;;;;33.93;19.17;;;9.50;99.90;;;;;;5054594;28;20246;-71
2021/12/24 08:01:26;;;;;;;29.33;18.20;;;9.50;99.90;;;;;;5055223;28;20219;-71
2021/12/24 08:03:56;;;;;;;34.17;17.80;;;9.50;99.90;;;;;;5054669;28;20249;-71
2021/12/24 08:06:24;;;;;;;37.00;18.80;;;9.50;99.90;;;;;;5054699;28;20172;-71
2021/12/24 08:08:50;;;;;;;33.17;18.20;;;9.50;99.90;;;;;;5054711;28;20188;-71
2021/12/24 08:11:16;;;;;;;31.57;17.13;;;9.50;99.90;;;;;;5054663;28;20647;-71
2021/12/24 08:13:42;;;;;;;34.57;18.13;;;9.60;99.90;;;;;;5054813;28;20534;-72
2021/12/24 08:16:09;;;;;;;32.93;17.53;;;9.50;99.90;;;;;;5054996;28;20181;-72
2021/12/24 08:18:36;;;;;;;30.77;17.57;;;9.50;99.90;;;;;;5054755;28;20227;-71
2021/12/24 08:21:03;;;;;;;27.87;17.50;;;9.50;99.90;;;;;;5054761;28;20177;-72
2021/12/24 08:23:28;;;;;;;29.50;17.73;;;9.50;99.90;;;;;;5054532;28;20184;-71
2021/12/24 08:25:58;;;;;;;31.10;18.97;;;9.50;99.90;;;;;;5054450;28;20699;-71
2021/12/24 08:28:25;;;;;;;31.03;18.07;;;9.50;99.90;;;;;;5054708;28;20589;-72
2021/12/24 08:30:50;;;;;;;29.40;18.17;;;9.60;99.90;;;;;;5054003;28;20238;-71
2021/12/24 08:33:16;;;;;;;33.90;19.43;;;9.60;99.90;;;;;;5054432;28;20173;-72
2021/12/24 08:35:42;;;;;;;33.77;18.83;;;9.70;99.90;;;;;;5053927;28;20180;-72
2021/12/24 08:38:08;;;;;;;28.37;18.20;;;9.60;99.90;;;;;;5054503;28;20640;-72
2021/12/24 08:40:33;;;;;;;33.03;18.73;;;9.70;99.90;;;;;;5053379;28;20304;-73
2021/12/24 08:43:00;;;;;;;32.00;18.33;;;9.70;99.90;;;;;;5054768;28;20531;-72
2021/12/24 08:45:29;;;;;;;38.57;19.23;;;9.70;99.90;;;;;;5054308;28;20201;-72
2021/12/24 08:47:54;;;;;;;33.00;19.03;;;9.80;99.90;;;;;;5052423;28;20169;-71
2021/12/24 08:50:20;;;;;;;31.93;19.60;;;9.80;99.90;;;;;;5053669;28;20219;-72
2021/12/24 08:52:46;;;;;;;40.83;19.07;;;9.90;99.90;;;;;;5054577;28;20169;-72
2021/12/24 08:55:15;;;;;;;34.33;19.13;;;9.80;99.90;;;;;;5054069;28;20241;-71
2021/12/24 08:57:42;;;;;;;36.40;20.50;;;9.90;99.90;;;;;;5054027;28;20212;-71
2021/12/24 09:00:11;;;;;;;35.57;20.57;;;9.80;99.90;;;;;;5054065;28;20358;-72
2021/12/24 09:02:38;;;;;;;36.93;19.40;;;9.80;99.90;;;;;;5054262;28;20169;-71
2021/12/24 09:05:08;;;;;;;34.17;20.63;;;9.70;99.90;;;;;;5053231;28;20205;-71
2021/12/24 09:07:34;;;;;;;37.40;21.07;;;9.70;99.90;;;;;;5053899;28;20166;-71
2021/12/24 09:09:59;;;;;;;38.37;20.10;;;9.70;99.90;;;;;;5053609;28;20192;-71
2021/12/24 09:12:25;;;;;;;40.33;20.90;;;9.60;99.90;;;;;;5053880;28;20177;-71
2021/12/24 09:14:53;;;;;;;42.23;21.67;;;9.60;99.90;;;;;;5053980;28;20180;-71
2021/12/24 09:17:20;;;;;;;45.00;21.70;;;9.60;99.90;;;;;;5052307;28;20272;-71
2021/12/24 09:19:49;;;;;;;42.60;21.90;;;9.70;99.90;;;;;;5053413;28;20536;-71
2021/12/24 09:22:19;;;;;;;42.67;20.53;;;9.60;99.90;;;;;;5053640;28;20161;-72
2021/12/24 09:24:49;;;;;;;46.73;22.03;;;9.60;99.90;;;;;;5053286;28;20212;-71
2021/12/24 09:27:16;;;;;;;48.47;22.27;;;9.60;99.90;;;;;;5053231;28;20220;-71
2021/12/24 09:29:42;;;;;;;42.10;21.87;;;9.70;99.90;;;;;;5053773;28;20659;-71
2021/12/24 09:32:08;;;;;;;44.03;21.30;;;9.70;99.90;;;;;;5053485;28;20173;-72
2021/12/24 09:34:34;;;;;;;41.30;21.47;;;9.70;99.90;;;;;;5052593;28;20173;-71
2021/12/24 09:37:00;;;;;;;37.80;20.80;;;9.70;99.90;;;;;;5053391;28;20185;-71
2021/12/24 09:39:25;;;;;;;40.37;21.07;;;9.80;99.90;;;;;;5052957;28;20191;-72
2021/12/24 09:41:51;;;;;;;41.07;20.70;;;9.90;99.90;;;;;;5053424;28;20184;-71
2021/12/24 09:44:17;;;;;;;36.03;19.70;;;10.00;99.90;;;;;;5053004;28;20212;-72
2021/12/24 09:46:43;;;;;;;38.03;19.60;;;10.00;99.90;;;;;;5052948;28;20180;-72
2021/12/24 09:49:11;;;;;;;38.70;19.93;;;9.90;99.90;;;;;;5050921;28;20169;-70
2021/12/24 09:51:39;;;;;;;35.60;19.43;;;10.00;99.90;;;;;;5052953;28;20652;-71
2021/12/24 09:54:16;;;;;;;37.50;19.47;;;10.00;99.90;;;;;;5053225;28;20177;-71
2021/12/24 09:56:43;;;;;;;33.03;19.57;;;10.00;99.90;;;;;;5052947;28;20249;-71
2021/12/24 09:59:08;;;;;;;33.73;19.83;;;9.90;99.90;;;;;;5052399;28;20637;-72
2021/12/24 10:02:07;;;;;;;33.57;19.83;;;10.00;99.90;;;;;;5052844;28;20172;-71
2021/12/24 10:04:35;;;;;;;35.97;19.30;;;10.10;99.90;;;;;;5029734;28;20641;-71
2021/12/24 10:07:03;;;;;;;32.80;19.00;;;10.20;99.90;;;;;;5031180;28;20265;-70
2021/12/24 10:09:49;;;;;;;33.57;18.33;;;10.10;99.90;;;;;;5030771;28;20265;-71
2021/12/24 10:12:23;;;;;;;31.43;17.27;;;10.10;99.90;;;;;;5030629;28;20170;-72
2021/12/24 10:14:57;;;;;;;28.13;17.57;;;10.10;99.90;;;;;;5030445;28;20182;-71
2021/12/24 10:17:25;;;;;;;31.00;17.10;;;10.20;99.90;;;;;;5030157;28;20170;-71
2021/12/24 10:19:57;;;;;;;33.10;16.60;;;10.20;99.90;;;;;;5031049;28;20201;-71
2021/12/24 10:22:23;;;;;;;29.57;16.90;;;10.20;99.90;;;;;;5030161;28;20649;-71
2021/12/24 10:25:12;;;;;;;33.90;16.37;;;10.20;99.90;;;;;;5030486;28;20289;-72
2021/12/24 10:27:38;;;;;;;28.00;16.10;;;10.10;99.90;;;;;;5030693;28;20719;-71
2021/12/24 10:30:21;;;;;;;33.23;16.57;;;10.00;99.90;;;;;;5030314;28;20204;-72
2021/12/24 10:32:47;;;;;;;33.43;15.70;;;10.00;99.90;;;;;;5030286;28;20170;-71
2021/12/24 10:35:27;;;;;;;31.93;16.10;;;9.90;99.90;;;;;;5030160;28;20186;-72
2021/12/24 10:38:28;;;;;;;34.80;18.07;;;10.00;99.90;;;;;;5013580;28;20206;-71
2021/12/24 10:41:01;;;;;;;29.90;17.07;;;10.20;99.90;;;;;;4972078;28;20282;-70
2021/12/24 10:43:36;;;;;;;26.13;15.70;;;10.30;99.90;;;;;;4991197;28;20266;-72
2021/12/24 10:46:12;;;;;;;26.00;16.47;;;10.20;99.90;;;;;;4990652;28;20214;-71
2021/12/24 10:48:45;;;;;;;28.07;16.00;;;10.20;99.90;;;;;;4991265;28;20189;-72
2021/12/24 10:51:20;;;;;;;22.70;14.17;;;10.10;99.90;;;;;;4990352;28;20179;-73
2021/12/24 10:54:05;;;;;;;24.17;13.67;;;10.10;99.90;;;;;;4980768;28;20533;-72
2021/12/24 10:56:31;;;;;;;26.93;13.83;;;10.10;99.90;;;;;;4997238;28;20209;-71
2021/12/24 10:58:57;;;;;;;24.57;13.63;;;10.30;99.90;;;;;;4997191;28;20679;-72
2021/12/24 11:01:23;;;;;;;29.47;15.47;;;10.30;99.90;;;;;;4996082;28;20191;-71
2021/12/24 11:03:49;;;;;;;23.60;13.40;;;10.40;99.90;;;;;;4997317;28;20214;-71
2021/12/24 11:06:15;;;;;;;25.17;13.10;;;10.40;99.90;;;;;;4996664;28;20183;-71
2021/12/24 11:08:42;;;;;;;24.87;14.10;;;10.50;99.90;;;;;;4996961;28;20182;-72
2021/12/24 11:11:11;;;;;;;25.07;12.00;;;10.60;99.90;;;;;;4997064;28;20182;-72
2021/12/24 11:13:42;;;;;;;25.40;13.30;;;10.80;99.90;;;;;;4997040;28;20683;-71
2021/12/24 11:16:16;;;;;;;25.97;12.90;;;10.70;99.90;;;;;;5058041;28;20192;-72
2021/12/24 11:18:46;;;;;;;22.63;11.83;;;10.70;99.90;;;;;;5058452;28;20168;-72
2021/12/24 11:21:18;;;;;;;24.97;13.53;;;10.80;99.90;;;;;;5058463;28;20168;-71
2021/12/24 11:23:43;;;;;;;25.60;12.03;;;10.90;99.90;;;;;;5057887;28;20180;-70
2021/12/24 11:26:16;;;;;;;21.70;12.77;;;11.00;99.90;;;;;;5058235;28;20282;-71
2021/12/24 11:28:43;;;;;;;25.40;14.10;;;11.00;99.90;;;;;;5058291;28;20177;-71
2021/12/24 11:31:10;;;;;;;27.93;13.33;;;10.90;99.90;;;;;;5058055;28;20199;-72
2021/12/24 11:33:39;;;;;;;23.70;12.93;;;11.00;99.90;;;;;;5058544;28;20641;-71
2021/12/24 11:36:07;;;;;;;21.00;13.17;;;11.10;99.90;;;;;;5058264;28;20610;-72
2021/12/24 11:38:44;;;;;;;19.00;11.87;;;11.20;99.90;;;;;;5058872;28;20183;-71
2021/12/24 11:41:19;;;;;;;20.47;12.87;;;11.30;99.90;;;;;;5057341;28;20196;-72
2021/12/24 11:43:47;;;;;;;17.50;12.07;;;11.40;99.90;;;;;;5058287;28;20169;-71
2021/12/24 11:46:16;;;;;;;21.73;12.77;;;11.30;99.90;;;;;;5058230;28;20177;-71
2021/12/24 11:48:43;;;;;;;21.10;12.40;;;11.10;99.90;;;;;;5058160;28;20558;-71
2021/12/24 11:51:23;;;;;;;24.30;12.63;;;11.10;99.90;;;;;;5057896;28;20252;-71
2021/12/24 11:53:51;;;;;;;20.73;12.20;;;11.20;99.90;;;;;;5058454;28;20624;-72
2021/12/24 11:56:19;;;;;;;19.70;12.00;;;11.20;99.90;;;;;;5058182;28;20165;-71
2021/12/24 11:58:53;;;;;;;18.73;12.37;;;11.10;99.90;;;;;;5057700;28;20703;-71
2021/12/24 12:01:22;;;;;;;20.80;12.60;;;11.20;99.90;;;;;;5058085;28;20522;-72
2021/12/24 12:03:52;;;;;;;21.20;11.97;;;11.30;99.90;;;;;;5057835;28;20181;-72
2021/12/24 12:06:24;;;;;;;20.87;13.27;;;11.30;99.90;;;;;;5054684;28;20192;-72
2021/12/24 12:09:00;;;;;;;21.97;12.23;;;11.40;99.90;;;;;;5054644;28;20628;-72
2021/12/24 12:11:39;;;;;;;22.30;12.67;;;11.50;99.90;;;;;;5054210;28;20165;-72
2021/12/24 12:14:11;;;;;;;21.63;13.47;;;11.30;99.90;;;;;;5054324;28;20161;-71
2021/12/24 12:16:42;;;;;;;20.37;12.63;;;11.10;99.90;;;;;;5054955;28;20176;-72
2021/12/24 12:19:16;;;;;;;25.57;12.97;;;11.10;99.90;;;;;;5054730;28;20235;-71
2021/12/24 12:25:06;;;;;;;20.47;13.27;;;11.30;99.90;;;;;;5054693;28;20688;-71
2021/12/24 12:27:44;;;;;;;24.13;13.27;;;11.50;99.90;;;;;;5035523;28;20221;-72
2021/12/24 12:30:37;;;;;;;24.30;12.87;;;11.40;99.90;;;;;;5034464;28;20201;-72
2021/12/24 12:33:07;;;;;;;20.17;12.47;;;11.60;99.90;;;;;;5033937;28;20661;-72
2021/12/24 12:35:44;;;;;;;22.13;13.80;;;11.50;99.90;;;;;;5034519;28;20665;-71
2021/12/24 12:38:39;;;;;;;29.53;17.30;;;11.50;99.90;;;;;;5034576;28;20219;-71
2021/12/24 12:41:33;;;;;;;63.03;36.33;;;11.50;99.90;;;;;;5034462;28;20182;-72
2021/12/24 12:44:11;;;;;;;27.17;17.40;;;11.40;99.90;;;;;;5034235;28;20182;-71
2021/12/24 12:46:40;;;;;;;23.83;15.17;;;11.20;99.90;;;;;;5034260;28;20253;-71
2021/12/24 12:49:08;;;;;;;23.43;15.00;;;11.20;99.90;;;;;;5034252;28;20169;-72
2021/12/24 12:52:01;;;;;;;26.43;16.03;;;11.30;99.90;;;;;;5034265;28;20170;-72
2021/12/24 12:54:32;;;;;;;24.93;14.60;;;11.20;99.90;;;;;;5031449;28;20541;-72
2021/12/24 12:57:19;;;;;;;26.17;13.93;;;11.40;99.90;;;;;;5033837;28;20194;-71
2021/12/24 13:00:18;;;;;;;22.63;14.80;;;11.30;99.90;;;;;;5034207;28;20184;-73
2021/12/24 13:02:56;;;;;;;22.10;13.97;;;11.40;99.90;;;;;;5034414;28;20180;-72
2021/12/24 13:05:23;;;;;;;21.23;14.63;;;11.50;99.90;;;;;;5033548;28;20193;-72
2021/12/24 13:07:49;;;;;;;26.73;14.93;;;11.70;99.90;;;;;;5034170;28;20174;-72
2021/12/24 13:10:17;;;;;;;20.47;14.73;;;11.90;99.90;;;;;;5033543;28;20181;-71
2021/12/24 13:12:43;;;;;;;23.63;14.30;;;12.10;99.90;;;;;;5033420;28;20170;-72
2021/12/24 13:15:15;;;;;;;21.00;14.37;;;12.10;99.90;;;;;;5033349;28;20202;-71
2021/12/24 13:17:46;;;;;;;22.63;15.63;;;12.10;99.90;;;;;;5033666;28;20174;-71
2021/12/24 13:20:23;;;;;;;24.60;14.27;;;12.00;99.90;;;;;;5034035;28;20170;-72
2021/12/24 13:22:49;;;;;;;20.80;13.77;;;12.00;99.90;;;;;;5033359;28;20177;-72
2021/12/24 13:25:16;;;;;;;22.43;13.33;;;12.10;99.90;;;;;;5035406;28;20228;-71
2021/12/24 13:27:44;;;;;;;19.40;13.77;;;12.20;99.90;;;;;;5053307;28;20178;-71
2021/12/24 13:30:19;;;;;;;20.50;14.23;;;12.20;99.90;;;;;;5052896;28;20177;-71
2021/12/24 13:32:47;;;;;;;22.17;14.07;;;12.40;99.90;;;;;;5053405;28;20164;-72
2021/12/24 13:35:14;;;;;;;18.40;13.43;;;12.30;99.90;;;;;;5053277;28;20173;-70
2021/12/24 13:37:45;;;;;;;23.10;14.80;;;12.20;99.90;;;;;;5053619;28;20260;-71
2021/12/24 13:40:32;;;;;;;20.93;13.07;;;12.00;99.90;;;;;;5052504;28;20364;-71
2021/12/24 13:43:02;;;;;;;22.67;14.07;;;12.10;99.90;;;;;;5053023;28;20180;-71
2021/12/24 13:45:32;;;;;;;20.27;13.67;;;11.90;99.90;;;;;;5053120;28;20201;-71
2021/12/24 13:48:03;;;;;;;21.33;14.00;;;11.90;99.90;;;;;;5052676;28;20622;-71
2021/12/24 13:56:38;;;;;;;22.00;14.77;;;11.10;99.90;;;;;;5052429;28;20242;-72
2021/12/24 13:59:05;;;;;;;21.07;14.60;;;11.20;99.90;;;;;;5053100;28;20253;-73
2021/12/24 14:01:31;;;;;;;21.23;14.57;;;11.10;99.90;;;;;;5053078;28;20177;-72
2021/12/24 14:03:59;;;;;;;21.67;14.30;;;11.20;99.90;;;;;;5052220;28;20188;-71
2021/12/24 14:06:40;;;;;;;19.77;14.30;;;11.10;99.90;;;;;;5052537;28;20220;-72
2021/12/24 14:09:09;;;;;;;22.93;15.13;;;11.20;99.90;;;;;;5051996;28;20192;-72
2021/12/24 14:11:36;;;;;;;21.93;14.57;;;11.30;99.90;;;;;;5052369;28;20656;-72
2021/12/24 14:14:08;;;;;;;20.60;15.03;;;11.20;99.90;;;;;;5052996;28;20189;-72
2021/12/24 14:16:59;;;;;;;22.77;15.40;;;11.10;99.90;;;;;;5052933;28;20201;-71
2021/12/24 14:19:37;;;;;;;26.20;15.83;;;11.20;99.90;;;;;;5052009;28;20632;-71
2021/12/24 14:22:14;;;;;;;24.23;15.50;;;11.40;99.90;;;;;;5052259;28;20161;-72
2021/12/24 14:25:04;;;;;;;23.87;16.07;;;11.20;99.90;;;;;;5051913;28;20228;-72
2021/12/24 14:27:31;;;;;;;26.50;16.40;;;11.30;99.90;;;;;;5051584;28;20211;-72
2021/12/24 14:29:58;;;;;;;24.53;16.47;;;11.50;99.90;;;;;;5051814;28;20201;-71
2021/12/24 14:32:45;;;;;;;24.00;17.20;;;11.60;99.90;;;;;;5052237;28;20187;-71
2021/12/24 14:35:15;;;;;;;24.53;16.57;;;11.50;99.90;;;;;;5052018;28;20169;-71
2021/12/24 14:37:51;;;;;;;25.67;17.03;;;11.50;99.90;;;;;;5052716;28;20161;-73
2021/12/24 14:40:18;;;;;;;24.77;16.43;;;11.60;99.90;;;;;;5051638;28;20192;-73
2021/12/24 14:42:50;;;;;;;23.60;16.07;;;11.50;99.90;;;;;;5052477;28;20231;-72